Kenaston, Canada
Current Conditions -  °F | °C
As of 6:00 PM on Wednesday 22 Oct 2014 (Local Time) from CYXE Reporting Station
Scattered Clouds Scattered Clouds  
Wind Chill: 52°   Ceiling: Unl
Heat Index: 52°   Visibility: 15mi
Dew Point: 43°   Wind: 3mph
Humidity: 71%   Direction: 220°SW
Pressure: 29.74"   Gusts: NA
Location:  51.5°N, 106.28°W
Report Text: CYXE 230000Z 22003KT 15SM SCT300 11/06 A2974 RMK CI3 PRESRR SLP086 DENSITY ALT 1700FT
Loading
Personal Weather Stations






























Interactive Weather Map
Tropical Storm Tracking
New forecast layout! Learn more

10-Day Weather Forecast

Advertisements
Track Severe Weather on mobile